sensor_id;sensor_type;location;lat;lon;timestamp;pressure;altitude;pressure_sealevel;temperature;humidity
54407;BME280;40313;50.308;30.374;2022-11-20T00:01:42;100022.06;;;-7.87;100.00
54407;BME280;40313;50.308;30.374;2022-11-20T00:04:10;100020.31;;;-7.90;100.00
54407;BME280;40313;50.308;30.374;2022-11-20T00:06:38;100018.56;;;-7.92;100.00
54407;BME280;40313;50.308;30.374;2022-11-20T00:09:05;100016.06;;;-7.91;100.00
54407;BME280;40313;50.308;30.374;2022-11-20T00:11:32;100015.34;;;-7.85;100.00
54407;BME280;40313;50.308;30.374;2022-11-20T00:14:00;100011.28;;;-7.80;100.00
54407;BME280;40313;50.308;30.374;2022-11-20T00:16:30;100017.22;;;-7.78;100.00
54407;BME280;40313;50.308;30.374;2022-11-20T00:18:57;100021.34;;;-7.82;100.00
54407;BME280;40313;50.308;30.374;2022-11-20T00:21:25;100027.25;;;-7.83;100.00
54407;BME280;40313;50.308;30.374;2022-11-20T00:23:54;100034.81;;;-7.84;100.00
54407;BME280;40313;50.308;30.374;2022-11-20T00:26:23;100036.47;;;-7.85;100.00
54407;BME280;40313;50.308;30.374;2022-11-20T00:28:53;100031.25;;;-7.91;100.00
54407;BME280;40313;50.308;30.374;2022-11-20T00:31:20;100050.03;;;-7.83;100.00
54407;BME280;40313;50.308;30.374;2022-11-20T00:33:47;100062.69;;;-7.83;100.00
54407;BME280;40313;50.308;30.374;2022-11-20T00:36:16;100060.13;;;-7.84;100.00
54407;BME280;40313;50.308;30.374;2022-11-20T00:38:43;100057.56;;;-7.86;100.00
54407;BME280;40313;50.308;30.374;2022-11-20T00:41:12;100050.78;;;-7.87;100.00
54407;BME280;40313;50.308;30.374;2022-11-20T00:43:39;100056.56;;;-7.91;100.00
54407;BME280;40313;50.308;30.374;2022-11-20T00:46:07;100051.47;;;-7.92;100.00
54407;BME280;40313;50.308;30.374;2022-11-20T00:48:34;100058.28;;;-7.90;100.00
54407;BME280;40313;50.308;30.374;2022-11-20T00:51:00;100060.91;;;-7.87;100.00
54407;BME280;40313;50.308;30.374;2022-11-20T00:53:27;100056.78;;;-7.82;100.00
54407;BME280;40313;50.308;30.374;2022-11-20T00:55:54;100050.16;;;-7.76;100.00
54407;BME280;40313;50.308;30.374;2022-11-20T00:58:23;100038.41;;;-7.74;100.00
54407;BME280;40313;50.308;30.374;2022-11-20T01:00:50;100027.50;;;-7.70;100.00
54407;BME280;40313;50.308;30.374;2022-11-20T01:03:17;100030.16;;;-7.67;100.00
54407;BME280;40313;50.308;30.374;2022-11-20T01:05:44;100025.16;;;-7.64;100.00
54407;BME280;40313;50.308;30.374;2022-11-20T01:08:10;100023.47;;;-7.64;100.00
54407;BME280;40313;50.308;30.374;2022-11-20T01:10:37;100035.44;;;-7.56;100.00
54407;BME280;40313;50.308;30.374;2022-11-20T01:13:03;100031.38;;;-7.50;100.00
54407;BME280;40313;50.308;30.374;2022-11-20T01:15:49;100038.31;;;-7.42;100.00
54407;BME280;40313;50.308;30.374;2022-11-20T01:18:15;100035.09;;;-7.35;100.00
54407;BME280;40313;50.308;30.374;2022-11-20T01:20:42;100025.94;;;-7.28;100.00
54407;BME280;40313;50.308;30.374;2022-11-20T01:23:08;100031.16;;;-7.22;100.00
54407;BME280;40313;50.308;30.374;2022-11-20T01:25:35;100027.91;;;-7.17;100.00
54407;BME280;40313;50.308;30.374;2022-11-20T01:28:01;100025.47;;;-7.10;100.00
54407;BME280;40313;50.308;30.374;2022-11-20T01:30:28;100024.75;;;-7.05;100.00
54407;BME280;40313;50.308;30.374;2022-11-20T01:32:56;100023.19;;;-7.00;100.00
54407;BME280;40313;50.308;30.374;2022-11-20T01:35:22;100022.50;;;-6.92;100.00
54407;BME280;40313;50.308;30.374;2022-11-20T01:37:49;100024.34;;;-6.84;100.00
54407;BME280;40313;50.308;30.374;2022-11-20T01:40:16;100029.53;;;-6.78;100.00
54407;BME280;40313;50.308;30.374;2022-11-20T01:42:47;100036.38;;;-6.73;100.00
54407;BME280;40313;50.308;30.374;2022-11-20T01:45:52;100039.88;;;-6.68;100.00
54407;BME280;40313;50.308;30.374;2022-11-20T01:48:25;100046.78;;;-6.61;100.00
54407;BME280;40313;50.308;30.374;2022-11-20T01:50:53;100050.28;;;-6.54;100.00
54407;BME280;40313;50.308;30.374;2022-11-20T01:53:25;100054.72;;;-6.46;100.00
54407;BME280;40313;50.308;30.374;2022-11-20T01:55:55;100050.59;;;-6.39;100.00
54407;BME280;40313;50.308;30.374;2022-11-20T01:58:28;100063.41;;;-6.33;100.00
54407;BME280;40313;50.308;30.374;2022-11-20T02:00:56;100066.06;;;-6.27;100.00
54407;BME280;40313;50.308;30.374;2022-11-20T02:03:24;100066.19;;;-6.19;100.00
54407;BME280;40313;50.308;30.374;2022-11-20T02:05:56;100060.38;;;-6.13;100.00
54407;BME280;40313;50.308;30.374;2022-11-20T02:08:25;100062.16;;;-6.08;100.00
54407;BME280;40313;50.308;30.374;2022-11-20T02:10:52;100058.88;;;-6.02;100.00
54407;BME280;40313;50.308;30.374;2022-11-20T02:13:18;100051.34;;;-5.97;100.00
54407;BME280;40313;50.308;30.374;2022-11-20T02:16:03;100058.97;;;-5.96;100.00
54407;BME280;40313;50.308;30.374;2022-11-20T02:18:32;100065.78;;;-5.93;100.00
54407;BME280;40313;50.308;30.374;2022-11-20T02:21:04;100079.44;;;-5.86;100.00
54407;BME280;40313;50.308;30.374;2022-11-20T02:23:38;100083.78;;;-5.81;100.00
54407;BME280;40313;50.308;30.374;2022-11-20T02:26:09;100077.09;;;-5.76;100.00
54407;BME280;40313;50.308;30.374;2022-11-20T02:28:37;100067.84;;;-5.70;100.00
54407;BME280;40313;50.308;30.374;2022-11-20T02:31:04;100070.44;;;-5.67;100.00
54407;BME280;40313;50.308;30.374;2022-11-20T02:33:30;100068.84;;;-5.62;100.00
54407;BME280;40313;50.308;30.374;2022-11-20T02:35:57;100065.53;;;-5.58;100.00
54407;BME280;40313;50.308;30.374;2022-11-20T02:38:23;100064.72;;;-5.56;100.00
54407;BME280;40313;50.308;30.374;2022-11-20T02:40:50;100063.84;;;-5.56;100.00
54407;BME280;40313;50.308;30.374;2022-11-20T02:43:18;100058.75;;;-5.56;100.00
54407;BME280;40313;50.308;30.374;2022-11-20T02:45:44;100069.81;;;-5.54;100.00
54407;BME280;40313;50.308;30.374;2022-11-20T02:48:11;100069.06;;;-5.50;100.00
54407;BME280;40313;50.308;30.374;2022-11-20T02:50:38;100056.38;;;-5.47;100.00
54407;BME280;40313;50.308;30.374;2022-11-20T02:53:06;100056.44;;;-5.44;100.00
54407;BME280;40313;50.308;30.374;2022-11-20T02:55:32;100069.19;;;-5.41;100.00
54407;BME280;40313;50.308;30.374;2022-11-20T02:57:59;100077.69;;;-5.39;100.00
54407;BME280;40313;50.308;30.374;2022-11-20T03:00:27;100076.03;;;-5.36;100.00
54407;BME280;40313;50.308;30.374;2022-11-20T03:02:53;100076.06;;;-5.33;100.00
54407;BME280;40313;50.308;30.374;2022-11-20T03:05:20;100075.25;;;-5.32;100.00
54407;BME280;40313;50.308;30.374;2022-11-20T03:07:46;100063.38;;;-5.30;100.00
54407;BME280;40313;50.308;30.374;2022-11-20T03:10:13;100069.38;;;-5.28;100.00
54407;BME280;40313;50.308;30.374;2022-11-20T03:12:39;100069.41;;;-5.27;100.00
54407;BME280;40313;50.308;30.374;2022-11-20T03:15:07;100072.81;;;-5.23;100.00
54407;BME280;40313;50.308;30.374;2022-11-20T03:17:35;100085.53;;;-5.23;100.00
54407;BME280;40313;50.308;30.374;2022-11-20T03:20:02;100101.66;;;-5.24;100.00
54407;BME280;40313;50.308;30.374;2022-11-20T03:22:28;100096.56;;;-5.24;100.00
54407;BME280;40313;50.308;30.374;2022-11-20T03:24:55;100103.34;;;-5.23;100.00
54407;BME280;40313;50.308;30.374;2022-11-20T03:27:22;100107.59;;;-5.24;100.00
54407;BME280;40313;50.308;30.374;2022-11-20T03:29:48;100094.03;;;-5.24;100.00
54407;BME280;40313;50.308;30.374;2022-11-20T03:32:15;100084.63;;;-5.30;100.00
54407;BME280;40313;50.308;30.374;2022-11-20T03:34:43;100088.03;;;-5.26;100.00
54407;BME280;40313;50.308;30.374;2022-11-20T03:37:09;100082.94;;;-5.26;100.00
54407;BME280;40313;50.308;30.374;2022-11-20T03:39:36;100085.47;;;-5.29;100.00
54407;BME280;40313;50.308;30.374;2022-11-20T03:42:02;100083.72;;;-5.30;100.00
54407;BME280;40313;50.308;30.374;2022-11-20T03:44:49;100082.91;;;-5.29;100.00
54407;BME280;40313;50.308;30.374;2022-11-20T03:47:15;100084.63;;;-5.28;100.00
54407;BME280;40313;50.308;30.374;2022-11-20T03:49:43;100083.81;;;-5.27;100.00
54407;BME280;40313;50.308;30.374;2022-11-20T03:52:10;100077.03;;;-5.25;100.00
54407;BME280;40313;50.308;30.374;2022-11-20T03:54:36;100079.59;;;-5.24;100.00
54407;BME280;40313;50.308;30.374;2022-11-20T03:57:03;100081.31;;;-5.23;100.00
54407;BME280;40313;50.308;30.374;2022-11-20T03:59:29;100068.63;;;-5.21;100.00
54407;BME280;40313;50.308;30.374;2022-11-20T04:01:56;100073.75;;;-5.19;100.00
54407;BME280;40313;50.308;30.374;2022-11-20T04:04:22;100069.50;;;-5.19;100.00
54407;BME280;40313;50.308;30.374;2022-11-20T04:06:50;100070.38;;;-5.17;100.00
54407;BME280;40313;50.308;30.374;2022-11-20T04:09:17;100064.44;;;-5.16;100.00
54407;BME280;40313;50.308;30.374;2022-11-20T04:11:43;100068.75;;;-5.12;100.00
54407;BME280;40313;50.308;30.374;2022-11-20T04:14:13;100070.47;;;-5.11;100.00
54407;BME280;40313;50.308;30.374;2022-11-20T04:16:40;100069.59;;;-5.13;100.00
54407;BME280;40313;50.308;30.374;2022-11-20T04:19:11;100066.13;;;-5.18;100.00
54407;BME280;40313;50.308;30.374;2022-11-20T04:21:38;100068.63;;;-5.21;100.00
54407;BME280;40313;50.308;30.374;2022-11-20T04:24:06;100072.78;;;-5.26;100.00
54407;BME280;40313;50.308;30.374;2022-11-20T04:26:34;100062.56;;;-5.29;100.00
54407;BME280;40313;50.308;30.374;2022-11-20T04:29:00;100057.44;;;-5.32;100.00
54407;BME280;40313;50.308;30.374;2022-11-20T04:31:29;100044.69;;;-5.35;100.00
54407;BME280;40313;50.308;30.374;2022-11-20T04:33:59;100038.69;;;-5.39;100.00
54407;BME280;40313;50.308;30.374;2022-11-20T04:36:27;100032.75;;;-5.41;100.00
54407;BME280;40313;50.308;30.374;2022-11-20T04:38:55;100026.78;;;-5.42;100.00
54407;BME280;40313;50.308;30.374;2022-11-20T04:41:25;100026.78;;;-5.42;100.00
54407;BME280;40313;50.308;30.374;2022-11-20T04:43:54;100026.75;;;-5.43;100.00
54407;BME280;40313;50.308;30.374;2022-11-20T04:46:25;100019.09;;;-5.46;100.00
54407;BME280;40313;50.308;30.374;2022-11-20T04:48:52;100016.56;;;-5.46;100.00
54407;BME280;40313;50.308;30.374;2022-11-20T04:51:19;100014.81;;;-5.49;100.00
54407;BME280;40313;50.308;30.374;2022-11-20T04:53:45;100004.66;;;-5.49;100.00
54407;BME280;40313;50.308;30.374;2022-11-20T04:56:12;100001.25;;;-5.49;100.00
54407;BME280;40313;50.308;30.374;2022-11-20T04:58:41;100003.81;;;-5.48;100.00
54407;BME280;40313;50.308;30.374;2022-11-20T05:01:10;99999.63;;;-5.46;100.00
54407;BME280;40313;50.308;30.374;2022-11-20T05:03:37;100001.28;;;-5.48;100.00
54407;BME280;40313;50.308;30.374;2022-11-20T05:06:05;99997.91;;;-5.47;100.00
54407;BME280;40313;50.308;30.374;2022-11-20T05:08:33;100001.31;;;-5.45;100.00
54407;BME280;40313;50.308;30.374;2022-11-20T05:11:01;99984.38;;;-5.46;100.00
54407;BME280;40313;50.308;30.374;2022-11-20T05:13:27;99988.72;;;-5.39;100.00
54407;BME280;40313;50.308;30.374;2022-11-20T05:15:55;99989.59;;;-5.35;100.00
54407;BME280;40313;50.308;30.374;2022-11-20T05:18:22;99996.41;;;-5.32;100.00
54407;BME280;40313;50.308;30.374;2022-11-20T05:20:54;100004.09;;;-5.28;100.00
54407;BME280;40313;50.308;30.374;2022-11-20T05:23:21;99996.53;;;-5.23;100.00
54407;BME280;40313;50.308;30.374;2022-11-20T05:25:48;99987.25;;;-5.19;100.00
54407;BME280;40313;50.308;30.374;2022-11-20T05:28:15;99974.56;;;-5.18;100.00
54407;BME280;40313;50.308;30.374;2022-11-20T05:30:41;99962.75;;;-5.14;100.00
54407;BME280;40313;50.308;30.374;2022-11-20T05:33:09;99979.81;;;-5.07;100.00
54407;BME280;40313;50.308;30.374;2022-11-20T05:35:35;99973.09;;;-5.00;100.00
54407;BME280;40313;50.308;30.374;2022-11-20T05:38:02;99976.53;;;-4.95;100.00
54407;BME280;40313;50.308;30.374;2022-11-20T05:40:29;99975.78;;;-4.90;100.00
54407;BME280;40313;50.308;30.374;2022-11-20T05:42:55;99985.13;;;-4.89;100.00
54407;BME280;40313;50.308;30.374;2022-11-20T05:45:22;99978.34;;;-4.85;100.00
54407;BME280;40313;50.308;30.374;2022-11-20T05:47:48;99990.31;;;-4.79;100.00
54407;BME280;40313;50.308;30.374;2022-11-20T05:50:16;99987.00;;;-4.71;100.00
54407;BME280;40313;50.308;30.374;2022-11-20T05:52:43;99992.22;;;-4.61;100.00
54407;BME280;40313;50.308;30.374;2022-11-20T05:55:09;99995.66;;;-4.53;100.00
54407;BME280;40313;50.308;30.374;2022-11-20T05:57:36;100005.13;;;-4.44;100.00
54407;BME280;40313;50.308;30.374;2022-11-20T06:00:04;99996.66;;;-4.40;100.00
54407;BME280;40313;50.308;30.374;2022-11-20T06:02:30;100003.56;;;-4.31;100.00
54407;BME280;40313;50.308;30.374;2022-11-20T06:05:00;100006.19;;;-4.22;100.00
54407;BME280;40313;50.308;30.374;2022-11-20T06:07:28;100002.03;;;-4.12;100.00
54407;BME280;40313;50.308;30.374;2022-11-20T06:09:54;100002.97;;;-4.06;100.00
54407;BME280;40313;50.308;30.374;2022-11-20T06:12:21;100008.06;;;-4.04;100.00
54407;BME280;40313;50.308;30.374;2022-11-20T06:14:47;100005.53;;;-4.01;100.00
54407;BME280;40313;50.308;30.374;2022-11-20T06:17:14;99994.53;;;-3.95;100.00
54407;BME280;40313;50.308;30.374;2022-11-20T06:19:40;99986.09;;;-3.88;100.00
54407;BME280;40313;50.308;30.374;2022-11-20T06:22:07;99994.69;;;-3.78;100.00
54407;BME280;40313;50.308;30.374;2022-11-20T06:24:35;99994.72;;;-3.71;100.00
54407;BME280;40313;50.308;30.374;2022-11-20T06:27:01;99984.56;;;-3.65;100.00
54407;BME280;40313;50.308;30.374;2022-11-20T06:29:28;99992.25;;;-3.61;100.00
54407;BME280;40313;50.308;30.374;2022-11-20T06:31:54;99986.31;;;-3.59;100.00
54407;BME280;40313;50.308;30.374;2022-11-20T06:34:21;99988.03;;;-3.56;100.00
54407;BME280;40313;50.308;30.374;2022-11-20T06:36:47;99982.97;;;-3.50;100.00
54407;BME280;40313;50.308;30.374;2022-11-20T06:39:14;99978.75;;;-3.45;100.00
54407;BME280;40313;50.308;30.374;2022-11-20T06:41:42;99972.84;;;-3.38;100.00
54407;BME280;40313;50.308;30.374;2022-11-20T06:44:08;99978.00;;;-3.28;100.00
54407;BME280;40313;50.308;30.374;2022-11-20T06:46:35;99974.66;;;-3.18;100.00
54407;BME280;40313;50.308;30.374;2022-11-20T06:49:01;99967.91;;;-3.10;100.00
54407;BME280;40313;50.308;30.374;2022-11-20T06:51:28;99971.31;;;-3.05;100.00
54407;BME280;40313;50.308;30.374;2022-11-20T06:53:54;99970.50;;;-2.96;100.00
54407;BME280;40313;50.308;30.374;2022-11-20T06:56:21;99966.28;;;-2.89;100.00
54407;BME280;40313;50.308;30.374;2022-11-20T06:58:49;99967.16;;;-2.86;100.00
54407;BME280;40313;50.308;30.374;2022-11-20T07:01:15;99962.88;;;-2.85;100.00
54407;BME280;40313;50.308;30.374;2022-11-20T07:03:42;99968.00;;;-2.84;100.00
54407;BME280;40313;50.308;30.374;2022-11-20T07:06:09;99962.91;;;-2.81;100.00
54407;BME280;40313;50.308;30.374;2022-11-20T07:08:36;99955.25;;;-2.78;100.00
54407;BME280;40313;50.308;30.374;2022-11-20T07:11:04;99946.75;;;-2.72;100.00
54407;BME280;40313;50.308;30.374;2022-11-20T07:13:32;99951.00;;;-2.69;100.00
54407;BME280;40313;50.308;30.374;2022-11-20T07:16:01;99946.75;;;-2.72;100.00
54407;BME280;40313;50.308;30.374;2022-11-20T07:18:28;99951.03;;;-2.68;100.00
54407;BME280;40313;50.308;30.374;2022-11-20T07:20:55;99945.06;;;-2.61;100.00
54407;BME280;40313;50.308;30.374;2022-11-20T07:23:21;99949.34;;;-2.56;100.00
54407;BME280;40313;50.308;30.374;2022-11-20T07:25:48;99953.63;;;-2.55;100.00
54407;BME280;40313;50.308;30.374;2022-11-20T07:28:15;99957.03;;;-2.47;100.00
54407;BME280;40313;50.308;30.374;2022-11-20T07:30:41;99961.31;;;-2.35;100.00
54407;BME280;40313;50.308;30.374;2022-11-20T07:33:09;99949.41;;;-2.24;100.00
54407;BME280;40313;50.308;30.374;2022-11-20T07:35:35;99951.97;;;-2.18;100.00
54407;BME280;40313;50.308;30.374;2022-11-20T07:38:02;99959.63;;;-2.10;100.00
54407;BME280;40313;50.308;30.374;2022-11-20T07:40:28;99952.81;;;-2.00;100.00
54407;BME280;40313;50.308;30.374;2022-11-20T07:42:55;99951.13;;;-2.00;100.00
54407;BME280;40313;50.308;30.374;2022-11-20T07:45:23;99951.13;;;-2.03;100.00
54407;BME280;40313;50.308;30.374;2022-11-20T07:47:50;99955.38;;;-2.05;100.00
54407;BME280;40313;50.308;30.374;2022-11-20T07:50:19;99955.38;;;-2.00;100.00
54407;BME280;40313;50.308;30.374;2022-11-20T07:52:46;99956.22;;;-1.92;100.00
54407;BME280;40313;50.308;30.374;2022-11-20T07:55:13;99940.03;;;-1.96;100.00
54407;BME280;40313;50.308;30.374;2022-11-20T07:57:40;99942.59;;;-1.86;100.00
54407;BME280;40313;50.308;30.374;2022-11-20T08:00:08;99936.59;;;-1.78;100.00
54407;BME280;40313;50.308;30.374;2022-11-20T08:02:37;99931.47;;;-1.75;100.00
54407;BME280;40313;50.308;30.374;2022-11-20T08:05:05;99932.31;;;-1.65;100.00
54407;BME280;40313;50.308;30.374;2022-11-20T08:07:36;99928.91;;;-1.61;100.00
54407;BME280;40313;50.308;30.374;2022-11-20T08:10:04;99939.97;;;-1.48;100.00
54407;BME280;40313;50.308;30.374;2022-11-20T08:12:31;99925.47;;;-1.41;100.00
54407;BME280;40313;50.308;30.374;2022-11-20T08:15:15;99913.47;;;-1.34;100.00
54407;BME280;40313;50.308;30.374;2022-11-20T08:17:42;99905.78;;;-1.24;100.00
54407;BME280;40313;50.308;30.374;2022-11-20T08:20:09;99904.88;;;-1.15;100.00
54407;BME280;40313;50.308;30.374;2022-11-20T08:22:37;99898.03;;;-1.07;100.00
54407;BME280;40313;50.308;30.374;2022-11-20T08:25:04;99903.97;;;-1.01;100.00
54407;BME280;40313;50.308;30.374;2022-11-20T08:27:31;99896.28;;;-0.98;100.00
54407;BME280;40313;50.308;30.374;2022-11-20T08:29:58;99899.69;;;-1.01;100.00
54407;BME280;40313;50.308;30.374;2022-11-20T08:32:24;99895.44;;;-1.02;100.00
54407;BME280;40313;50.308;30.374;2022-11-20T08:34:51;99892.94;;;-1.11;100.00
54407;BME280;40313;50.308;30.374;2022-11-20T08:37:17;99898.06;;;-1.14;100.00
54407;BME280;40313;50.308;30.374;2022-11-20T08:39:45;99892.13;;;-1.21;100.00
54407;BME280;40313;50.308;30.374;2022-11-20T08:42:12;99894.66;;;-1.18;100.00
54407;BME280;40313;50.308;30.374;2022-11-20T08:44:38;99901.50;;;-1.25;100.00
54407;BME280;40313;50.308;30.374;2022-11-20T08:47:05;99899.84;;;-1.35;100.00
54407;BME280;40313;50.308;30.374;2022-11-20T08:49:31;99901.53;;;-1.40;100.00
54407;BME280;40313;50.308;30.374;2022-11-20T08:51:58;99906.69;;;-1.38;100.00
54407;BME280;40313;50.308;30.374;2022-11-20T08:54:24;99893.88;;;-1.42;100.00
54407;BME280;40313;50.308;30.374;2022-11-20T08:56:52;99898.16;;;-1.45;100.00
54407;BME280;40313;50.308;30.374;2022-11-20T08:59:19;99895.63;;;-1.48;100.00
54407;BME280;40313;50.308;30.374;2022-11-20T09:01:45;99893.06;;;-1.48;100.00
54407;BME280;40313;50.308;30.374;2022-11-20T09:04:12;99888.81;;;-1.51;100.00
54407;BME280;40313;50.308;30.374;2022-11-20T09:06:39;99872.59;;;-1.48;100.00
54407;BME280;40313;50.308;30.374;2022-11-20T09:09:06;99881.13;;;-1.49;100.00
54407;BME280;40313;50.308;30.374;2022-11-20T09:11:33;99882.81;;;-1.47;100.00
54407;BME280;40313;50.308;30.374;2022-11-20T09:14:01;99878.53;;;-1.43;100.00
54407;BME280;40313;50.308;30.374;2022-11-20T09:16:29;99882.81;;;-1.47;100.00
54407;BME280;40313;50.308;30.374;2022-11-20T09:18:56;99875.16;;;-1.48;100.00
54407;BME280;40313;50.308;30.374;2022-11-20T09:21:22;99867.50;;;-1.50;100.00
54407;BME280;40313;50.308;30.374;2022-11-20T09:23:49;99864.03;;;-1.47;100.00
54407;BME280;40313;50.308;30.374;2022-11-20T09:26:16;99865.75;;;-1.45;100.00
54407;BME280;40313;50.308;30.374;2022-11-20T09:28:42;99858.94;;;-1.44;100.00
54407;BME280;40313;50.308;30.374;2022-11-20T09:31:19;99845.28;;;-1.46;100.00
54407;BME280;40313;50.308;30.374;2022-11-20T09:33:48;99840.97;;;-1.33;100.00
54407;BME280;40313;50.308;30.374;2022-11-20T09:36:14;99845.22;;;-1.31;100.00
54407;BME280;40313;50.308;30.374;2022-11-20T09:38:42;99830.72;;;-1.26;100.00
54407;BME280;40313;50.308;30.374;2022-11-20T09:44:07;99831.56;;;-1.27;100.00
54407;BME280;40313;50.308;30.374;2022-11-20T09:46:45;99831.53;;;-1.24;100.00
54407;BME280;40313;50.308;30.374;2022-11-20T09:49:24;99825.59;;;-1.29;100.00
54407;BME280;40313;50.308;30.374;2022-11-20T09:51:57;99811.03;;;-1.19;100.00
54407;BME280;40313;50.308;30.374;2022-11-20T09:54:27;99822.09;;;-1.11;100.00
54407;BME280;40313;50.308;30.374;2022-11-20T09:56:59;99814.34;;;-1.00;100.00
54407;BME280;40313;50.308;30.374;2022-11-20T09:59:33;99804.88;;;-0.90;100.00
54407;BME280;40313;50.308;30.374;2022-11-20T10:02:03;99804.88;;;-0.87;100.00
54407;BME280;40313;50.308;30.374;2022-11-20T10:04:33;99800.50;;;-0.77;100.00
54407;BME280;40313;50.308;30.374;2022-11-20T10:07:06;99800.47;;;-0.70;100.00
54407;BME280;40313;50.308;30.374;2022-11-20T10:09:37;99804.72;;;-0.70;100.00
54407;BME280;40313;50.308;30.374;2022-11-20T10:12:14;99799.66;;;-0.75;100.00
54407;BME280;40313;50.308;30.374;2022-11-20T10:14:55;99791.91;;;-0.70;100.00
54407;BME280;40313;50.308;30.374;2022-11-20T10:17:46;99777.41;;;-0.70;100.00
54407;BME280;40313;50.308;30.374;2022-11-20T10:20:19;99767.16;;;-0.68;100.00
54407;BME280;40313;50.308;30.374;2022-11-20T10:23:00;99771.44;;;-0.68;100.00
54407;BME280;40313;50.308;30.374;2022-11-20T10:25:37;99764.66;;;-0.74;100.00
54407;BME280;40313;50.308;30.374;2022-11-20T10:28:21;99751.00;;;-0.76;100.00
54407;BME280;40313;50.308;30.374;2022-11-20T10:30:56;99749.25;;;-0.71;100.00
54407;BME280;40313;50.308;30.374;2022-11-20T10:33:26;99759.50;;;-0.71;100.00
54407;BME280;40313;50.308;30.374;2022-11-20T10:36:03;99759.50;;;-0.73;100.00
54407;BME280;40313;50.308;30.374;2022-11-20T10:38:31;99760.44;;;-0.81;100.00
54407;BME280;40313;50.308;30.374;2022-11-20T10:41:01;99757.88;;;-0.84;100.00
54407;BME280;40313;50.308;30.374;2022-11-20T10:43:44;99771.59;;;-0.92;100.00
54407;BME280;40313;50.308;30.374;2022-11-20T10:46:15;99764.84;;;-1.02;100.00
54407;BME280;40313;50.308;30.374;2022-11-20T10:48:45;99760.66;;;-1.11;100.00
54407;BME280;40313;50.308;30.374;2022-11-20T10:51:25;99764.03;;;-1.07;100.00
54407;BME280;40313;50.308;30.374;2022-11-20T10:54:00;99761.50;;;-1.13;100.00
54407;BME280;40313;50.308;30.374;2022-11-20T10:56:35;99749.59;;;-1.14;100.00
54407;BME280;40313;50.308;30.374;2022-11-20T10:59:18;99744.47;;;-1.14;100.00
54407;BME280;40313;50.308;30.374;2022-11-20T11:01:49;99743.59;;;-1.15;100.00
54407;BME280;40313;50.308;30.374;2022-11-20T11:04:33;99734.22;;;-1.14;100.00
54407;BME280;40313;50.308;30.374;2022-11-20T11:07:08;99745.31;;;-1.15;100.00
54407;BME280;40313;50.308;30.374;2022-11-20T11:09:42;99746.16;;;-1.16;100.00
54407;BME280;40313;50.308;30.374;2022-11-20T11:12:09;99746.19;;;-1.19;100.00
54407;BME280;40313;50.308;30.374;2022-11-20T11:14:45;99740.25;;;-1.25;100.00
54407;BME280;40313;50.308;30.374;2022-11-20T11:17:21;99736.91;;;-1.31;100.00
54407;BME280;40313;50.308;30.374;2022-11-20T11:19:58;99738.63;;;-1.35;100.00
54407;BME280;40313;50.308;30.374;2022-11-20T11:22:28;99734.34;;;-1.36;100.00
54407;BME280;40313;50.308;30.374;2022-11-20T11:24:55;99719.00;;;-1.37;100.00
54407;BME280;40313;50.308;30.374;2022-11-20T11:27:22;99724.97;;;-1.34;100.00
54407;BME280;40313;50.308;30.374;2022-11-20T11:29:48;99727.53;;;-1.34;100.00
54407;BME280;40313;50.308;30.374;2022-11-20T11:32:18;99730.97;;;-1.41;100.00
54407;BME280;40313;50.308;30.374;2022-11-20T11:35:00;99717.38;;;-1.51;100.00
54407;BME280;40313;50.308;30.374;2022-11-20T11:37:33;99714.88;;;-1.60;100.00
54407;BME280;40313;50.308;30.374;2022-11-20T11:40:01;99719.16;;;-1.64;100.00
54407;BME280;40313;50.308;30.374;2022-11-20T11:42:28;99719.16;;;-1.64;100.00
54407;BME280;40313;50.308;30.374;2022-11-20T11:44:57;99723.44;;;-1.63;100.00
54407;BME280;40313;50.308;30.374;2022-11-20T11:47:35;99720.00;;;-1.59;100.00
54407;BME280;40313;50.308;30.374;2022-11-20T11:50:16;99713.16;;;-1.58;100.00
54407;BME280;40313;50.308;30.374;2022-11-20T11:52:46;99703.75;;;-1.54;100.00
54407;BME280;40313;50.308;30.374;2022-11-20T11:55:18;99704.53;;;-1.43;100.00
54407;BME280;40313;50.308;30.374;2022-11-20T11:57:52;99707.94;;;-1.41;100.00
54407;BME280;40313;50.308;30.374;2022-11-20T12:00:21;99702.81;;;-1.40;100.00
54407;BME280;40313;50.308;30.374;2022-11-20T12:03:00;99699.41;;;-1.40;100.00
54407;BME280;40313;50.308;30.374;2022-11-20T12:05:36;99710.50;;;-1.38;100.00
54407;BME280;40313;50.308;30.374;2022-11-20T12:08:12;99705.41;;;-1.43;100.00
54407;BME280;40313;50.308;30.374;2022-11-20T12:10:45;99694.34;;;-1.48;100.00
54407;BME280;40313;50.308;30.374;2022-11-20T12:13:22;99720.84;;;-1.57;100.00
54407;BME280;40313;50.308;30.374;2022-11-20T12:15:53;99715.75;;;-1.60;100.00
54407;BME280;40313;50.308;30.374;2022-11-20T12:18:21;99720.06;;;-1.71;100.00
54407;BME280;40313;50.308;30.374;2022-11-20T12:20:58;99708.97;;;-1.73;100.00
54407;BME280;40313;50.308;30.374;2022-11-20T12:23:34;99703.88;;;-1.70;100.00
54407;BME280;40313;50.308;30.374;2022-11-20T12:26:03;99686.84;;;-1.80;100.00
54407;BME280;40313;50.308;30.374;2022-11-20T12:28:51;99680.03;;;-1.84;100.00
54407;BME280;40313;50.308;30.374;2022-11-20T12:31:33;99703.06;;;-1.84;100.00
54407;BME280;40313;50.308;30.374;2022-11-20T12:34:24;99702.22;;;-1.86;100.00
54407;BME280;40313;50.308;30.374;2022-11-20T12:37:00;99689.44;;;-1.88;100.00
54407;BME280;40313;50.308;30.374;2022-11-20T12:39:35;99674.97;;;-1.92;100.00
54407;BME280;40313;50.308;30.374;2022-11-20T12:42:13;99663.06;;;-1.95;100.00
54407;BME280;40313;50.308;30.374;2022-11-20T12:45:10;99657.13;;;-1.98;100.00
54407;BME280;40313;50.308;30.374;2022-11-20T12:47:50;99644.38;;;-2.03;100.00
54407;BME280;40313;50.308;30.374;2022-11-20T12:50:25;99637.56;;;-2.04;100.00